Clements, Illinois
Current Conditions -  °F | °C
As of 2:15 PM on Wednesday 26 Nov 2014 (Local Time) from KIJX Reporting Station
Light Snow Light Snow  
Wind Chill: 24°   Ceiling: 1100
Heat Index: 34°   Visibility: 1.2mi
Dew Point: 31°   Wind: 16mph
Humidity: 90%   Direction: 100°E
Pressure: 29.99"   Gusts: NA
Location:  39.5952°N, 90.058°W
Report Text: KIJX 262015Z AUTO 10014KT 1 1/4SM -SN OVC011 01/00 A2999 RMK AO2 T00111003
Loading
Personal Weather Stations






























Interactive Weather Map New forecast layout! Learn more

10-Day Weather Forecast

Advertisements
Track Severe Weather on mobile